Time;durP1;ratioP1;P1;durP2;ratioP2;P2;SDS_P1;SDS_P2;PMS_P1;PMS_P2;Temp;Humidity;BMP_temperature;BMP_pressure;BME280_temperature;BME280_humidity;BME280_pressure;Samples;Min_cycle;Max_cycle;Signal;HPM_P1;HPM_P2
2023/07/29 00:01:56;;;;;;;;;;;;;;;22.30;100.00;97511.38;5033671;28;19926;-73
2023/07/29 00:04:22;;;;;;;;;;;;;;;22.37;100.00;97510.78;5033841;28;19992;-75
2023/07/29 00:06:49;;;;;;;;;;;;;;;22.35;100.00;97513.03;5033676;28;19952;-72
2023/07/29 00:09:15;;;;;;;;;;;;;;;22.39;100.00;97516.66;5016115;28;19925;-72
2023/07/29 00:11:41;;;;;;;;;;;;;;;22.46;100.00;97511.41;5033750;28;19936;-73
2023/07/29 00:14:08;;;;;;;;;;;;;;;22.32;100.00;97511.03;5033459;28;19968;-72
2023/07/29 00:16:35;;;;;;;;;;;;;;;22.28;100.00;97513.66;5045756;28;19951;-70
2023/07/29 00:19:03;;;;;;;;;;;;;;;22.23;100.00;97524.78;5023709;28;19925;-69
2023/07/29 00:21:29;;;;;;;;;;;;;;;22.30;100.00;97527.72;5041549;28;19926;-71
2023/07/29 00:23:57;;;;;;;;;;;;;;;22.20;100.00;97528.22;5044491;28;19925;-69
2023/07/29 00:26:25;;;;;;;;;;;;;;;22.27;100.00;97522.97;5044730;28;19992;-70
2023/07/29 00:28:52;;;;;;;;;;;;;;;22.20;100.00;97524.69;5041996;28;19933;-70
2023/07/29 00:31:18;;;;;;;;;;;;;;;22.19;100.00;97529.34;5041943;28;19988;-70
2023/07/29 00:33:46;;;;;;;;;;;;;;;22.15;100.00;97533.91;5044166;28;19929;-70
2023/07/29 00:36:12;;;;;;;;;;;;;;;22.28;100.00;97531.91;5050643;28;19921;-70
2023/07/29 00:38:38;;;;;;;;;;;;;;;22.31;100.00;97529.28;5050512;28;19921;-70
2023/07/29 00:41:05;;;;;;;;;;;;;;;22.30;100.00;97514.09;5048148;28;19921;-70
2023/07/29 00:43:32;;;;;;;;;;;;;;;22.23;100.00;97522.06;5030358;28;19968;-70
2023/07/29 00:45:58;;;;;;;;;;;;;;;22.23;100.00;97522.06;5051072;28;19963;-70
2023/07/29 00:48:25;;;;;;;;;;;;;;;22.26;100.00;97518.66;5044164;28;19948;-70
2023/07/29 00:50:52;;;;;;;;;;;;;;;22.27;100.00;97514.00;5041224;28;20268;-70
2023/07/29 00:53:19;;;;;;;;;;;;;;;22.18;100.00;97516.91;5040789;28;20019;-70
2023/07/29 00:55:46;;;;;;;;;;;;;;;22.19;100.00;97509.53;5043138;28;19976;-70
2023/07/29 00:58:12;;;;;;;;;;;;;;;22.18;100.00;97507.94;5044173;28;19936;-70
2023/07/29 01:00:39;;;;;;;;;;;;;;;22.17;100.00;97512.59;5042837;28;20513;-70
2023/07/29 01:03:05;;;;;;;;;;;;;;;22.26;100.00;97512.41;5040967;28;20452;-70
2023/07/29 01:05:36;;;;;;;;;;;;;;;22.20;100.00;97520.03;5040820;28;20028;-70
2023/07/29 01:08:07;;;;;;;;;;;;;;;22.26;100.00;97520.56;5025734;28;19967;-70
2023/07/29 01:10:40;;;;;;;;;;;;;;;22.16;100.00;97508.28;5042727;28;19943;-70
2023/07/29 01:13:10;;;;;;;;;;;;;;;22.09;100.00;97510.81;5040539;28;19928;-70
2023/07/29 01:15:41;;;;;;;;;;;;;;;22.09;100.00;97508.09;5046061;28;19925;-70
2023/07/29 01:18:11;;;;;;;;;;;;;;;22.15;100.00;97508.63;5044149;28;19967;-70
2023/07/29 01:20:39;;;;;;;;;;;;;;;22.11;100.00;97496.84;5042577;28;19925;-70
2023/07/29 01:23:07;;;;;;;;;;;;;;;21.90;100.00;97508.75;5040376;28;19955;-70
2023/07/29 01:25:35;;;;;;;;;;;;;;;21.91;100.00;97506.81;5040862;28;19953;-70
2023/07/29 01:28:01;;;;;;;;;;;;;;;21.98;100.00;97496.91;5043617;28;19976;-70
2023/07/29 01:30:31;;;;;;;;;;;;;;;21.98;100.00;97518.66;5043739;28;19972;-70
2023/07/29 01:33:00;;;;;;;;;;;;;;;22.01;100.00;97522.63;5040268;28;20016;-69
2023/07/29 01:35:29;;;;;;;;;;;;;;;21.99;100.00;97522.19;5040087;28;19933;-69
2023/07/29 01:37:56;;;;;;;;;;;;;;;21.93;100.00;97520.84;5040154;28;19925;-70
2023/07/29 01:40:23;;;;;;;;;;;;;;;22.05;100.00;97509.91;5022342;28;19926;-70
2023/07/29 01:42:51;;;;;;;;;;;;;;;22.12;100.00;97506.59;5042617;28;19956;-70
2023/07/29 01:45:18;;;;;;;;;;;;;;;22.03;100.00;97493.94;5043291;28;19996;-70
2023/07/29 01:47:44;;;;;;;;;;;;;;;22.10;100.00;97493.34;5043091;28;19933;-70
2023/07/29 01:50:11;;;;;;;;;;;;;;;22.13;100.00;97487.22;5043042;28;19957;-70
2023/07/29 01:52:37;;;;;;;;;;;;;;;22.15;100.00;97490.41;5042066;28;19925;-70
2023/07/29 01:55:03;;;;;;;;;;;;;;;22.15;100.00;97482.22;5021969;28;19925;-70
2023/07/29 01:57:30;;;;;;;;;;;;;;;22.15;100.00;97490.41;5039546;28;19926;-71
2023/07/29 01:59:57;;;;;;;;;;;;;;;22.01;100.00;97498.16;5042900;28;19936;-70
2023/07/29 02:02:24;;;;;;;;;;;;;;;22.05;100.00;97501.75;5042986;28;20008;-70
2023/07/29 02:04:51;;;;;;;;;;;;;;;22.06;100.00;97504.13;5039825;28;19926;-70
2023/07/29 02:07:18;;;;;;;;;;;;;;;22.07;100.00;97499.47;5039363;28;19926;-70
2023/07/29 02:09:44;;;;;;;;;;;;;;;22.00;100.00;97502.78;5041492;28;19985;-70
2023/07/29 02:12:11;;;;;;;;;;;;;;;21.93;100.00;97507.25;5042862;28;19925;-72
2023/07/29 02:14:37;;;;;;;;;;;;;;;22.04;100.00;97502.88;5041789;28;19925;-72
2023/07/29 02:17:05;;;;;;;;;;;;;;;22.04;100.00;97500.97;5043796;28;19956;-72
2023/07/29 02:19:31;;;;;;;;;;;;;;;21.96;100.00;97509.28;5039405;28;19960;-72
2023/07/29 02:21:57;;;;;;;;;;;;;;;22.01;100.00;97501.66;5025285;28;19931;-72
2023/07/29 02:24:24;;;;;;;;;;;;;;;21.97;100.00;97494.56;5042797;28;19925;-72
2023/07/29 02:26:51;;;;;;;;;;;;;;;21.85;100.00;97502.75;5039638;28;19929;-72
2023/07/29 02:29:17;;;;;;;;;;;;;;;21.90;100.00;97510.66;5039090;28;20020;-72
2023/07/29 02:31:44;;;;;;;;;;;;;;;21.93;100.00;97509.97;5023641;28;19926;-72
2023/07/29 02:34:11;;;;;;;;;;;;;;;21.88;100.00;97511.00;5042510;28;20584;-72
2023/07/29 02:36:38;;;;;;;;;;;;;;;21.81;100.00;97512.72;5041461;28;19967;-72
2023/07/29 02:39:04;;;;;;;;;;;;;;;21.83;100.00;97515.88;5021464;28;19953;-72
2023/07/29 02:41:30;;;;;;;;;;;;;;;21.78;100.00;97507.97;5039734;28;19925;-72
2023/07/29 02:43:57;;;;;;;;;;;;;;;21.83;100.00;97513.16;5046813;28;19988;-72
2023/07/29 02:46:23;;;;;;;;;;;;;;;21.82;100.00;97517.00;5046239;28;20572;-71
2023/07/29 02:48:50;;;;;;;;;;;;;;;21.85;100.00;97511.66;5021820;28;19979;-72
2023/07/29 02:51:17;;;;;;;;;;;;;;;21.89;100.00;97509.88;5038822;28;19961;-72
2023/07/29 02:53:44;;;;;;;;;;;;;;;21.83;100.00;97505.00;5040773;28;19960;-72
2023/07/29 02:56:11;;;;;;;;;;;;;;;21.83;100.00;97497.63;5024511;28;20434;-72
2023/07/29 02:58:37;;;;;;;;;;;;;;;21.84;100.00;97507.38;5040978;28;19925;-72
2023/07/29 03:01:05;;;;;;;;;;;;;;;21.86;100.00;97499.66;5021278;28;20361;-72
2023/07/29 03:03:31;;;;;;;;;;;;;;;21.88;100.00;97491.97;5039080;28;20028;-72
2023/07/29 03:06:01;;;;;;;;;;;;;;;21.89;100.00;97493.56;5042219;28;20054;-72
2023/07/29 03:08:29;;;;;;;;;;;;;;;21.89;100.00;97492.78;5024473;28;19925;-72
2023/07/29 03:10:55;;;;;;;;;;;;;;;21.88;100.00;97491.97;5030687;28;20431;-72
2023/07/29 03:13:21;;;;;;;;;;;;;;;21.86;100.00;97485.28;5030619;28;19968;-72
2023/07/29 03:15:48;;;;;;;;;;;;;;;21.88;100.00;97486.53;5037330;28;19997;-72
2023/07/29 03:18:15;;;;;;;;;;;;;;;21.86;100.00;97480.63;5042146;28;19985;-72
2023/07/29 03:20:41;;;;;;;;;;;;;;;21.84;100.00;97493.78;5040673;28;19953;-72
2023/07/29 03:23:08;;;;;;;;;;;;;;;21.87;100.00;97487.66;5039191;28;19976;-72
2023/07/29 03:25:35;;;;;;;;;;;;;;;21.83;100.00;97494.13;5039530;28;19972;-72
2023/07/29 03:28:02;;;;;;;;;;;;;;;21.68;100.00;97490.22;5042221;28;19951;-72
2023/07/29 03:30:28;;;;;;;;;;;;;;;21.72;100.00;97482.16;5042128;28;19956;-72
2023/07/29 03:32:54;;;;;;;;;;;;;;;21.76;100.00;97485.75;5040810;28;19925;-72
2023/07/29 03:35:21;;;;;;;;;;;;;;;21.52;100.00;97484.72;5042434;28;19926;-72
2023/07/29 03:37:47;;;;;;;;;;;;;;;21.52;100.00;97490.16;5044743;28;19929;-72
2023/07/29 03:40:13;;;;;;;;;;;;;;;21.58;100.00;97487.19;5045930;28;19971;-72
2023/07/29 03:42:41;;;;;;;;;;;;;;;21.62;100.00;97485.38;5044568;28;19947;-72
2023/07/29 03:45:08;;;;;;;;;;;;;;;21.59;100.00;97492.28;5043871;28;19971;-72
2023/07/29 03:47:34;;;;;;;;;;;;;;;21.59;100.00;97486.06;5033704;28;19961;-72
2023/07/29 03:50:00;;;;;;;;;;;;;;;21.66;100.00;97484.34;5046663;28;19963;-72
2023/07/29 03:52:27;;;;;;;;;;;;;;;21.64;100.00;97486.59;5046330;28;19929;-72
2023/07/29 03:54:53;;;;;;;;;;;;;;;21.62;100.00;97494.31;5025763;28;19952;-72
2023/07/29 03:57:20;;;;;;;;;;;;;;;21.68;100.00;97481.28;5042865;28;19933;-72
2023/07/29 03:59:47;;;;;;;;;;;;;;;21.62;100.00;97488.88;5044821;28;19925;-72
2023/07/29 04:02:14;;;;;;;;;;;;;;;21.36;100.00;97488.47;5045724;28;19925;-72
2023/07/29 04:04:41;;;;;;;;;;;;;;;21.30;100.00;97496.09;5043970;28;20051;-72
2023/07/29 04:07:08;;;;;;;;;;;;;;;21.36;100.00;97491.19;5024333;28;19972;-72
2023/07/29 04:09:34;;;;;;;;;;;;;;;21.13;100.00;97485.47;5042616;28;19949;-72
2023/07/29 04:12:01;;;;;;;;;;;;;;;20.95;100.00;97486.81;5045382;28;19968;-72
2023/07/29 04:14:27;;;;;;;;;;;;;;;20.99;100.00;97490.44;5045311;28;19929;-72
2023/07/29 04:16:55;;;;;;;;;;;;;;;21.15;100.00;97487.84;5046471;28;19960;-72
2023/07/29 04:19:21;;;;;;;;;;;;;;;21.24;100.00;97492.03;5024181;28;19953;-72
2023/07/29 04:21:48;;;;;;;;;;;;;;;21.27;100.00;97499.47;5044274;28;19935;-72
2023/07/29 04:24:14;;;;;;;;;;;;;;;21.37;100.00;97507.16;5045198;28;19925;-72
2023/07/29 04:26:40;;;;;;;;;;;;;;;21.48;100.00;97510.19;5043393;28;19932;-72
2023/07/29 04:29:07;;;;;;;;;;;;;;;21.53;100.00;97497.19;5041379;28;20000;-72
2023/07/29 04:31:33;;;;;;;;;;;;;;;21.48;100.00;97491.97;5049946;28;19949;-72
2023/07/29 04:34:01;;;;;;;;;;;;;;;21.52;100.00;97484.72;5041431;28;19967;-72
2023/07/29 04:36:27;;;;;;;;;;;;;;;21.53;100.00;97486.31;5041403;28;19992;-72
2023/07/29 04:38:53;;;;;;;;;;;;;;;21.57;100.00;97494.53;5044385;28;19964;-72
2023/07/29 04:41:20;;;;;;;;;;;;;;;21.51;100.00;97498.63;5044374;28;19925;-72
2023/07/29 04:43:46;;;;;;;;;;;;;;;21.48;100.00;97500.13;5042233;28;19964;-72
2023/07/29 04:46:13;;;;;;;;;;;;;;;21.49;100.00;97496.28;5029340;28;19925;-72
2023/07/29 04:48:39;;;;;;;;;;;;;;;21.44;100.00;97493.81;5041771;28;19926;-72
2023/07/29 04:51:07;;;;;;;;;;;;;;;21.48;100.00;97489.25;5022442;28;19997;-72
2023/07/29 04:53:34;;;;;;;;;;;;;;;21.59;100.00;97500.44;5040569;28;19933;-72
2023/07/29 04:56:01;;;;;;;;;;;;;;;21.57;100.00;97494.53;5043467;28;19926;-72
2023/07/29 04:58:28;;;;;;;;;;;;;;;21.63;100.00;97490.47;5043505;28;19929;-72
2023/07/29 05:00:55;;;;;;;;;;;;;;;21.63;100.00;97489.69;5038918;28;19949;-72
2023/07/29 05:03:21;;;;;;;;;;;;;;;21.46;100.00;97494.25;5040135;28;20000;-72
2023/07/29 05:05:48;;;;;;;;;;;;;;;21.61;100.00;97491.94;5025205;28;19930;-72
2023/07/29 05:08:16;;;;;;;;;;;;;;;21.53;100.00;97491.75;5043750;28;19925;-72
2023/07/29 05:10:42;;;;;;;;;;;;;;;20.99;100.00;97485.00;5041755;28;19964;-72
2023/07/29 05:13:08;;;;;;;;;;;;;;;20.50;100.00;97481.47;5040272;28;19996;-73
2023/07/29 05:15:35;;;;;;;;;;;;;;;20.47;100.00;97479.44;5044938;28;19925;-72
2023/07/29 05:18:01;;;;;;;;;;;;;;;20.32;100.00;97480.09;5025810;28;20325;-72
2023/07/29 05:20:28;;;;;;;;;;;;;;;20.19;100.00;97487.38;5043351;28;19929;-72
2023/07/29 05:22:54;;;;;;;;;;;;;;;19.96;100.00;97482.69;5040110;28;19987;-72
2023/07/29 05:25:22;;;;;;;;;;;;;;;19.95;100.00;97481.91;5039960;28;19964;-73
2023/07/29 05:27:48;;;;;;;;;;;;;;;20.14;100.00;97487.59;5042517;28;19929;-72
2023/07/29 05:30:14;;;;;;;;;;;;;;;20.30;100.00;97499.41;5043365;28;19936;-72
2023/07/29 05:32:41;;;;;;;;;;;;;;;20.28;100.00;97492.75;5023971;28;19952;-72
2023/07/29 05:35:08;;;;;;;;;;;;;;;20.24;100.00;97492.59;5039518;28;19929;-71
2023/07/29 05:37:34;;;;;;;;;;;;;;;20.16;100.00;97492.69;5022726;28;19936;-73
2023/07/29 05:40:01;;;;;;;;;;;;;;;20.08;100.00;97486.25;5025335;28;19948;-72
2023/07/29 05:42:28;;;;;;;;;;;;;;;20.00;100.00;97473.53;5042780;28;19956;-72
2023/07/29 05:44:55;;;;;;;;;;;;;;;20.03;100.00;97481.00;5038416;28;19926;-72
2023/07/29 05:47:21;;;;;;;;;;;;;;;20.18;100.00;97479.56;4980691;28;1788497;-72
2023/07/29 05:49:47;;;;;;;;;;;;;;;20.14;100.00;97484.09;5042450;28;19930;-72
2023/07/29 05:52:14;;;;;;;;;;;;;;;20.11;100.00;97469.31;5043433;28;19925;-72
2023/07/29 05:54:42;;;;;;;;;;;;;;;20.13;100.00;97471.66;5023850;28;20038;-72
2023/07/29 05:57:09;;;;;;;;;;;;;;;20.30;100.00;97476.94;5039814;28;19948;-71
2023/07/29 05:59:37;;;;;;;;;;;;;;;20.24;100.00;97470.88;5022962;28;19933;-71
2023/07/29 06:02:04;;;;;;;;;;;;;;;20.23;100.00;97472.03;5043212;28;19948;-71
2023/07/29 06:04:30;;;;;;;;;;;;;;;20.06;100.00;97479.53;5025566;28;19985;-71
2023/07/29 06:06:56;;;;;;;;;;;;;;;20.23;100.00;97491.03;5039666;28;19925;-71
2023/07/29 06:09:23;;;;;;;;;;;;;;;20.57;100.00;97481.72;5022303;28;20031;-71
2023/07/29 06:11:49;;;;;;;;;;;;;;;20.59;100.00;97478.66;5042208;28;19937;-71
2023/07/29 06:14:16;;;;;;;;;;;;;;;20.78;100.00;97481.63;5042779;28;19948;-71
2023/07/29 06:16:44;;;;;;;;;;;;;;;20.72;100.00;97483.75;5045591;28;19928;-71
2023/07/29 06:19:10;;;;;;;;;;;;;;;20.70;100.00;97474.38;5039511;28;19960;-71
2023/07/29 06:21:36;;;;;;;;;;;;;;;20.68;100.00;97480.13;5040163;28;19926;-71
2023/07/29 06:24:03;;;;;;;;;;;;;;;20.68;100.00;97465.78;5042726;28;20362;-71
2023/07/29 06:26:29;;;;;;;;;;;;;;;20.61;100.00;97466.34;5042684;28;19925;-71
2023/07/29 06:28:55;;;;;;;;;;;;;;;20.59;100.00;97465.88;5029883;28;19952;-71
2023/07/29 06:31:22;;;;;;;;;;;;;;;20.43;100.00;97473.91;5031065;28;20372;-71
2023/07/29 06:33:49;;;;;;;;;;;;;;;20.54;100.00;97481.59;5013460;28;19960;-71
2023/07/29 06:36:16;;;;;;;;;;;;;;;20.70;100.00;97480.63;5030077;28;19926;-71
2023/07/29 06:38:42;;;;;;;;;;;;;;;20.80;100.00;97485.56;5030948;28;19932;-72
2023/07/29 06:41:09;;;;;;;;;;;;;;;20.81;100.00;97483.66;5030983;28;19964;-72
2023/07/29 06:43:35;;;;;;;;;;;;;;;20.89;100.00;97480.81;5029463;28;19948;-73
2023/07/29 06:46:01;;;;;;;;;;;;;;;21.19;100.00;97475.19;5043383;28;20256;-72
2023/07/29 06:48:28;;;;;;;;;;;;;;;20.88;100.00;97476.53;5025034;28;19971;-72
2023/07/29 06:51:00;;;;;;;;;;;;;;;20.75;100.00;97476.88;5039297;28;19932;-72
2023/07/29 06:53:26;;;;;;;;;;;;;;;20.88;100.00;97481.97;5039134;28;19926;-72
2023/07/29 06:55:53;;;;;;;;;;;;;;;20.76;100.00;97487.41;5042042;28;20002;-72
2023/07/29 06:58:19;;;;;;;;;;;;;;;20.76;100.00;97478.47;5025082;28;19934;-72
2023/07/29 07:00:45;;;;;;;;;;;;;;;20.62;100.00;97496.97;5022771;28;19925;-72
2023/07/29 07:03:12;;;;;;;;;;;;;;;20.67;100.00;97496.78;5038739;28;19926;-72
2023/07/29 07:05:38;;;;;;;;;;;;;;;20.69;100.00;97494.50;5039830;28;19964;-72
2023/07/29 07:08:06;;;;;;;;;;;;;;;20.90;100.00;97495.19;5044833;28;20278;-72
2023/07/29 07:10:33;;;;;;;;;;;;;;;20.98;100.00;97499.72;5045792;28;19953;-72
2023/07/29 07:13:00;;;;;;;;;;;;;;;20.90;100.00;97490.56;5042918;28;20016;-72
2023/07/29 07:15:26;;;;;;;;;;;;;;;21.06;100.00;97498.81;5046702;28;19964;-72
2023/07/29 07:17:52;;;;;;;;;;;;;;;21.15;100.00;97499.50;5046225;28;20271;-72
2023/07/29 07:20:19;;;;;;;;;;;;;;;20.90;100.00;97495.19;5046125;28;19976;-72
2023/07/29 07:22:45;;;;;;;;;;;;;;;20.73;100.00;97490.78;5026373;28;19965;-72
2023/07/29 07:25:13;;;;;;;;;;;;;;;20.69;100.00;97483.66;5042847;28;19989;-72
2023/07/29 07:27:39;;;;;;;;;;;;;;;20.66;100.00;97485.13;5026234;28;20073;-72
2023/07/29 07:30:06;;;;;;;;;;;;;;;20.66;100.00;97476.19;5046159;28;19925;-72
2023/07/29 07:32:32;;;;;;;;;;;;;;;20.68;100.00;97465.78;5028078;28;19924;-72
2023/07/29 07:34:59;;;;;;;;;;;;;;;20.68;100.00;97471.19;5042630;28;19933;-72
2023/07/29 07:37:25;;;;;;;;;;;;;;;20.65;100.00;97467.25;5042511;28;19925;-72
2023/07/29 07:39:52;;;;;;;;;;;;;;;20.73;100.00;97468.28;5045295;28;19944;-72
2023/07/29 07:42:19;;;;;;;;;;;;;;;20.81;100.00;97478.22;5045749;28;19968;-72
2023/07/29 07:44:46;;;;;;;;;;;;;;;20.84;100.00;97477.53;5043976;28;19925;-72
2023/07/29 07:47:12;;;;;;;;;;;;;;;20.89;100.00;97467.25;5046710;28;19925;-72
2023/07/29 07:49:38;;;;;;;;;;;;;;;20.97;100.00;97477.22;5025810;28;20291;-72
2023/07/29 07:52:05;;;;;;;;;;;;;;;21.11;100.00;97482.28;5045629;28;19925;-72
2023/07/29 07:54:31;;;;;;;;;;;;;;;21.13;100.00;97487.41;5027803;28;19944;-72
2023/07/29 07:56:58;;;;;;;;;;;;;;;21.13;100.00;97485.47;5024467;28;19929;-72
2023/07/29 07:59:26;;;;;;;;;;;;;;;21.23;100.00;97495.09;5024573;28;19925;-72
2023/07/29 08:01:54;;;;;;;;;;;;;;;21.33;100.00;97497.31;5045403;28;19929;-72
2023/07/29 08:04:21;;;;;;;;;;;;;;;21.35;100.00;97498.56;5028360;28;19931;-72
2023/07/29 08:06:48;;;;;;;;;;;;;;;21.51;100.00;97494.00;5043116;28;19929;-72
2023/07/29 08:09:14;;;;;;;;;;;;;;;21.66;100.00;97497.13;5024425;28;20020;-75
2023/07/29 08:11:41;;;;;;;;;;;;;;;21.73;100.00;97500.03;5043674;28;19925;-76
2023/07/29 08:14:07;;;;;;;;;;;;;;;21.74;100.00;97512.50;5045680;28;19956;-75
2023/07/29 08:16:35;;;;;;;;;;;;;;;21.73;100.00;97543.53;5049846;28;19954;-77
2023/07/29 08:19:02;;;;;;;;;;;;;;;21.78;100.00;97584.88;5042093;28;19932;-77
2023/07/29 08:21:29;;;;;;;;;;;;;;;21.71;100.00;97614.56;5042443;28;19926;-76
2023/07/29 08:23:55;;;;;;;;;;;;;;;21.64;100.00;97633.34;5028138;28;19925;-74
2023/07/29 08:26:21;;;;;;;;;;;;;;;21.64;100.00;97599.94;5045465;28;19984;-74
2023/07/29 08:28:49;;;;;;;;;;;;;;;21.46;100.00;97572.22;5043051;28;19993;-74
2023/07/29 08:31:16;;;;;;;;;;;;;;;21.60;100.00;97547.44;5042000;28;19932;-75
2023/07/29 08:33:43;;;;;;;;;;;;;;;21.47;100.00;97525.72;5043493;28;19925;-74
2023/07/29 08:36:10;;;;;;;;;;;;;;;21.40;100.00;97521.97;5045281;28;19967;-75
2023/07/29 08:38:36;;;;;;;;;;;;;;;21.09;100.00;97514.44;5044417;28;19985;-76
2023/07/29 08:41:07;;;;;;;;;;;;;;;21.06;100.00;97506.94;5041911;28;19925;-76
2023/07/29 08:43:33;;;;;;;;;;;;;;;20.83;100.00;97497.66;5042113;28;19953;-75
2023/07/29 08:46:00;;;;;;;;;;;;;;;20.78;100.00;97501.41;5032181;28;19982;-75
2023/07/29 08:48:32;;;;;;;;;;;;;;;20.97;100.00;97500.84;5045004;28;19925;-75
2023/07/29 08:51:01;;;;;;;;;;;;;;;21.23;100.00;97514.88;5041432;28;19965;-76
2023/07/29 08:53:28;;;;;;;;;;;;;;;21.37;100.00;97499.00;5024032;28;19957;-77
2023/07/29 08:55:55;;;;;;;;;;;;;;;21.32;100.00;97484.88;5044766;28;19925;-76
2023/07/29 08:58:22;;;;;;;;;;;;;;;21.15;100.00;97477.78;5044467;28;19925;-74
2023/07/29 09:00:48;;;;;;;;;;;;;;;21.33;100.00;97486.44;5042161;28;19929;-75
2023/07/29 09:03:15;;;;;;;;;;;;;;;21.19;100.00;97484.13;5023616;28;19992;-76
2023/07/29 09:05:41;;;;;;;;;;;;;;;21.01;100.00;97478.09;5042563;28;19965;-75
2023/07/29 09:08:09;;;;;;;;;;;;;;;20.84;100.00;97481.06;5044772;28;19956;-75
2023/07/29 09:10:36;;;;;;;;;;;;;;;20.91;100.00;97485.91;5043649;28;19925;-76
2023/07/29 09:13:03;;;;;;;;;;;;;;;21.00;100.00;97486.59;5041135;28;19925;-76
2023/07/29 09:15:30;;;;;;;;;;;;;;;20.95;100.00;97486.81;5045327;28;20005;-76
2023/07/29 09:17:56;;;;;;;;;;;;;;;20.89;100.00;97477.31;5032841;28;19933;-76
2023/07/29 09:20:26;;;;;;;;;;;;;;;20.89;100.00;97474.59;5032648;28;19925;-76
2023/07/29 09:22:54;;;;;;;;;;;;;;;20.95;100.00;97475.97;5015034;28;19925;-76
2023/07/29 09:25:24;;;;;;;;;;;;;;;21.01;100.00;97477.31;5032771;28;19937;-77
2023/07/29 09:27:51;;;;;;;;;;;;;;;21.07;100.00;97475.97;5032769;28;19929;-77
2023/07/29 09:30:17;;;;;;;;;;;;;;;20.99;100.00;97477.66;5031890;28;19960;-77
2023/07/29 09:32:44;;;;;;;;;;;;;;;20.74;100.00;97486.91;5032744;28;19968;-76
2023/07/29 09:35:11;;;;;;;;;;;;;;;20.95;100.00;97482.16;5015076;28;19926;-76
2023/07/29 09:37:38;;;;;;;;;;;;;;;21.06;100.00;97474.38;5032614;28;19952;-76
2023/07/29 09:40:05;;;;;;;;;;;;;;;21.02;100.00;97473.47;5032480;28;19961;-76
2023/07/29 09:42:33;;;;;;;;;;;;;;;21.13;100.00;97476.53;5032427;28;19926;-76
2023/07/29 09:45:00;;;;;;;;;;;;;;;21.37;100.00;97485.44;5031523;28;19937;-75
2023/07/29 09:47:27;;;;;;;;;;;;;;;21.52;100.00;97481.19;5044605;28;19933;-76
2023/07/29 09:49:54;;;;;;;;;;;;;;;21.51;100.00;97480.41;5043526;28;20293;-76
2023/07/29 09:52:22;;;;;;;;;;;;;;;21.63;100.00;97468.72;5043975;28;20227;-75
2023/07/29 09:54:49;;;;;;;;;;;;;;;21.73;100.00;97479.09;5023817;28;19987;-75
2023/07/29 09:57:16;;;;;;;;;;;;;;;21.75;100.00;97474.13;5040369;28;19957;-76
2023/07/29 09:59:44;;;;;;;;;;;;;;;21.85;100.00;97484.47;5041608;28;19925;-75
2023/07/29 10:02:14;;;;;;;;;;;;;;;21.98;100.00;97482.53;5043465;28;19925;-73
2023/07/29 10:04:41;;;;;;;;;;;;;;;21.96;100.00;97487.53;5042198;28;19932;-77
2023/07/29 10:07:07;;;;;;;;;;;;;;;22.13;100.00;97505.47;5022543;28;20112;-74
2023/07/29 10:09:34;;;;;;;;;;;;;;;22.16;100.00;97524.59;5040583;28;19925;-74
2023/07/29 10:12:01;;;;;;;;;;;;;;;22.00;100.00;97534.66;5025829;28;19925;-73
2023/07/29 10:14:28;;;;;;;;;;;;;;;22.01;100.00;97519.91;5025873;28;20513;-74
2023/07/29 10:16:56;;;;;;;;;;;;;;;21.99;100.00;97506.66;5026851;28;19963;-74
2023/07/29 10:19:23;;;;;;;;;;;;;;;21.95;100.00;97502.25;5039815;28;19992;-74
2023/07/29 10:21:50;;;;;;;;;;;;;;;22.03;100.00;97504.06;5042350;28;19929;-74
2023/07/29 10:24:20;;;;;;;;;;;;;;;22.02;100.00;97491.59;5043067;28;19936;-74
2023/07/29 10:26:47;;;;;;;;;;;;;;;22.00;100.00;97497.34;5022966;28;19936;-74
2023/07/29 10:29:15;;;;;;;;;;;;;;;22.01;100.00;97493.50;5021918;28;19925;-73
2023/07/29 10:31:44;;;;;;;;;;;;;;;21.92;100.00;97486.63;5040736;28;19936;-74
2023/07/29 10:34:12;;;;;;;;;;;;;;;21.88;100.00;97508.28;5025171;28;19925;-74
2023/07/29 10:36:38;;;;;;;;;;;;;;;21.90;100.00;97500.59;5041869;28;19932;-74
2023/07/29 10:39:05;;;;;;;;;;;;;;;21.95;100.00;97502.25;5039537;28;20036;-74
2023/07/29 10:41:46;;;;;;;;;;;;;;;21.89;100.00;97500.94;5021789;28;19926;-74
2023/07/29 10:44:27;;;;;;;;;;;;;;;21.95;100.00;97510.41;5042835;28;20210;-74
2023/07/29 10:46:54;;;;;;;;;;;;;;;22.00;100.00;97491.91;5044044;28;19925;-74
2023/07/29 10:49:31;;;;;;;;;;;;;;;22.10;100.00;97490.63;5039137;28;20315;-74
2023/07/29 10:51:57;;;;;;;;;;;;;;;22.25;100.00;97465.38;5039393;28;19936;-74
2023/07/29 10:54:24;;;;;;;;;;;;;;;22.23;100.00;97473.09;5039302;28;19981;-74
2023/07/29 10:56:50;;;;;;;;;;;;;;;22.12;100.00;97461.16;5041668;28;19926;-74
2023/07/29 10:59:33;;;;;;;;;;;;;;;22.36;100.00;97454.78;5024798;28;19925;-74
2023/07/29 11:02:00;;;;;;;;;;;;;;;22.35;100.00;97473.03;5039237;28;19925;-74
2023/07/29 11:04:30;;;;;;;;;;;;;;;22.28;100.00;97475.56;5039386;28;19990;-74
2023/07/29 11:07:14;;;;;;;;;;;;;;;22.43;100.00;97463.94;5039378;28;19926;-75
2023/07/29 11:09:41;;;;;;;;;;;;;;;22.50;100.00;97471.44;5040420;28;19926;-74
2023/07/29 11:12:23;;;;;;;;;;;;;;;22.63;100.00;97466.72;5042744;28;19936;-74
2023/07/29 11:14:49;;;;;;;;;;;;;;;22.62;100.00;97454.28;5022344;28;19929;-74
2023/07/29 11:17:15;;;;;;;;;;;;;;;22.59;100.00;97463.94;5043698;28;19948;-74
2023/07/29 11:19:44;;;;;;;;;;;;;;;22.59;100.00;97461.97;5040438;28;19926;-73
2023/07/29 11:22:10;;;;;;;;;;;;;;;22.62;100.00;97455.06;5042631;28;19956;-73
2023/07/29 11:24:37;;;;;;;;;;;;;;;22.64;100.00;97458.22;5041340;28;20434;-73
2023/07/29 11:27:03;;;;;;;;;;;;;;;22.59;100.00;97464.69;5039051;28;19925;-73
2023/07/29 11:29:30;;;;;;;;;;;;;;;22.81;100.00;97465.28;5021237;28;19949;-73
2023/07/29 11:31:56;;;;;;;;;;;;;;;22.89;100.00;97465.06;5030602;28;19925;-73
2023/07/29 11:34:31;;;;;;;;;;;;;;;23.00;100.00;97457.13;5030417;28;19937;-73
2023/07/29 11:36:59;;;;;;;;;;;;;;;23.03;100.00;97462.66;5030521;28;19925;-73
2023/07/29 11:39:25;;;;;;;;;;;;;;;22.94;100.00;97458.56;5020798;28;19953;-73
2023/07/29 11:41:52;;;;;;;;;;;;;;;23.12;100.00;97457.03;5041300;28;19952;-73
2023/07/29 11:44:18;;;;;;;;;;;;;;;22.97;100.00;97455.13;5024183;28;19932;-73
2023/07/29 11:46:45;;;;;;;;;;;;;;;23.16;100.00;97457.09;5044441;28;19932;-73
2023/07/29 11:49:11;;;;;;;;;;;;;;;23.10;100.00;97451.16;5038402;28;19925;-73
2023/07/29 11:51:37;;;;;;;;;;;;;;;23.11;100.00;97452.72;5021796;28;19925;-73
2023/07/29 11:54:05;;;;;;;;;;;;;;;23.49;100.00;97454.72;5026640;28;20362;-73
2023/07/29 11:56:33;;;;;;;;;;;;;;;23.71;100.00;97445.84;5027651;28;20544;-73
2023/07/29 11:59:00;;;;;;;;;;;;;;;23.64;100.00;97445.72;5042119;28;19992;-73
2023/07/29 12:01:26;;;;;;;;;;;;;;;23.68;100.00;97446.56;5042100;28;19937;-74
2023/07/29 12:03:53;;;;;;;;;;;;;;;23.63;100.00;97444.94;5044820;28;19948;-73
2023/07/29 12:06:19;;;;;;;;;;;;;;;23.43;100.00;97440.59;5045250;28;19968;-73
2023/07/29 12:08:46;;;;;;;;;;;;;;;23.52;100.00;97430.28;5042939;28;19996;-73
2023/07/29 12:11:14;;;;;;;;;;;;;;;23.22;100.00;97426.50;5041795;28;19926;-73
2023/07/29 12:13:42;;;;;;;;;;;;;;;23.19;100.00;97424.50;5042979;28;19995;-73
2023/07/29 12:16:08;;;;;;;;;;;;;;;23.16;100.00;97427.94;5049895;28;19984;-73
2023/07/29 12:18:35;;;;;;;;;;;;;;;23.11;100.00;97412.66;5026910;28;19925;-73
2023/07/29 12:21:01;;;;;;;;;;;;;;;23.13;100.00;97426.72;5041715;28;19926;-73
2023/07/29 12:23:28;;;;;;;;;;;;;;;23.13;100.00;97418.53;5041746;28;19925;-73
2023/07/29 12:25:57;;;;;;;;;;;;;;;23.43;100.00;97426.19;5045056;28;19924;-73
2023/07/29 12:28:25;;;;;;;;;;;;;;;23.41;100.00;97415.66;5027707;28;19980;-73
2023/07/29 12:30:53;;;;;;;;;;;;;;;23.28;100.00;97410.66;5042258;28;19945;-73
2023/07/29 12:33:30;;;;;;;;;;;;;;;23.62;100.00;97409.84;5023940;28;19940;-73
2023/07/29 12:35:56;;;;;;;;;;;;;;;23.33;100.00;97408.47;5033191;28;20307;-74